Time;durP1;ratioP1;P1;durP2;ratioP2;P2;SDS_P1;SDS_P2;PMS_P1;PMS_P2;Temp;Humidity;BMP_temperature;BMP_pressure;BME280_temperature;BME280_humidity;BME280_pressure;Samples;Min_cycle;Max_cycle;Signal;HPM_P1;HPM_P2
2023/05/28 00:00:26;;;;;;;7.20;5.13;;;15.30;95.30;;;;;;4889203;29;20491;-83
2023/05/28 00:02:52;;;;;;;6.10;4.50;;;14.80;95.20;;;;;;4890944;29;20206;-83
2023/05/28 00:05:18;;;;;;;8.33;5.77;;;14.90;95.40;;;;;;4890547;29;20296;-83
2023/05/28 00:07:44;;;;;;;6.30;4.97;;;14.90;96.00;;;;;;4894306;29;20563;-83
2023/05/28 00:10:10;;;;;;;6.30;4.63;;;14.80;96.30;;;;;;4888592;29;20534;-83
2023/05/28 00:12:35;;;;;;;7.10;5.03;;;14.90;96.40;;;;;;4889418;29;20222;-83
2023/05/28 00:15:01;;;;;;;5.47;4.60;;;14.80;96.30;;;;;;4890425;29;20461;-82
2023/05/28 00:17:27;;;;;;;7.77;5.07;;;14.60;96.20;;;;;;4891708;29;20447;-83
2023/05/28 00:19:53;;;;;;;6.43;4.45;;;14.10;96.10;;;;;;4891795;29;20210;-83
2023/05/28 00:22:19;;;;;;;7.20;5.10;;;15.00;96.50;;;;;;4889299;29;20574;-83
2023/05/28 00:24:44;;;;;;;4.90;4.30;;;14.70;96.50;;;;;;4917580;29;20191;-82
2023/05/28 00:27:10;;;;;;;5.53;4.40;;;14.30;96.50;;;;;;4898053;29;20558;-82
2023/05/28 00:29:35;;;;;;;6.67;5.00;;;14.30;96.60;;;;;;4895707;29;20200;-82
2023/05/28 00:32:01;;;;;;;7.50;4.97;;;14.80;97.00;;;;;;4888927;29;20218;-83
2023/05/28 00:34:27;;;;;;;5.77;5.03;;;14.70;97.00;;;;;;4892583;29;20195;-82
2023/05/28 00:36:53;;;;;;;6.10;4.60;;;14.40;96.90;;;;;;4890635;29;20191;-82
2023/05/28 00:39:19;;;;;;;7.65;5.75;;;14.20;97.00;;;;;;4891357;29;20281;-82
2023/05/28 00:41:45;;;;;;;8.05;4.38;;;14.60;97.30;;;;;;4891583;29;20269;-82
2023/05/28 00:44:12;;;;;;;8.90;4.83;;;14.40;97.60;;;;;;4892428;29;20697;-82
2023/05/28 00:46:41;;;;;;;6.60;4.55;;;14.30;97.70;;;;;;4887489;29;20653;-82
2023/05/28 00:49:07;;;;;;;5.47;4.97;;;14.10;97.50;;;;;;4891655;29;20268;-83
2023/05/28 00:51:35;;;;;;;5.93;3.83;;;14.60;97.80;;;;;;4890565;29;20289;-83
2023/05/28 00:54:00;;;;;;;6.45;5.13;;;14.10;97.60;;;;;;4895066;29;20470;-83
2023/05/28 00:56:26;;;;;;;5.37;4.40;;;14.40;97.90;;;;;;4890664;29;20222;-83
2023/05/28 00:58:53;;;;;;;5.60;5.03;;;14.50;98.10;;;;;;4892636;29;20195;-83
2023/05/28 01:01:18;;;;;;;6.45;4.60;;;14.40;98.30;;;;;;4894329;29;20190;-83
2023/05/28 01:03:44;;;;;;;7.03;5.97;;;14.30;98.30;;;;;;4889960;29;20191;-83
2023/05/28 01:06:13;;;;;;;8.63;4.97;;;13.90;98.20;;;;;;4886491;29;20195;-83
2023/05/28 01:08:41;;;;;;;7.43;4.82;;;14.30;98.90;;;;;;4903777;29;21042;-83
2023/05/28 01:11:09;;;;;;;7.95;5.25;;;13.70;98.50;;;;;;4887508;29;20187;-82
2023/05/28 01:13:36;;;;;;;5.00;4.60;;;14.20;99.10;;;;;;4890441;29;20228;-82
2023/05/28 01:16:01;;;;;;;6.18;4.63;;;14.10;99.00;;;;;;4899909;29;20278;-82
2023/05/28 01:18:27;;;;;;;6.77;4.87;;;13.70;99.10;;;;;;4893723;29;20236;-82
2023/05/28 01:20:53;;;;;;;8.70;5.80;;;13.60;99.20;;;;;;4892844;29;20207;-82
2023/05/28 01:23:20;;;;;;;5.22;4.63;;;13.70;99.30;;;;;;4902351;29;20835;-82
2023/05/28 01:25:52;;;;;;;8.52;4.63;;;14.00;99.70;;;;;;4893981;29;20195;-82
2023/05/28 01:28:20;;;;;;;5.18;4.68;;;13.70;99.40;;;;;;4890738;29;20190;-82
2023/05/28 01:30:45;;;;;;;5.78;5.18;;;13.60;99.60;;;;;;4891546;29;20195;-82
2023/05/28 01:33:11;;;;;;;6.00;4.40;;;14.10;99.90;;;;;;4885191;29;20210;-82
2023/05/28 01:35:38;;;;;;;7.65;4.55;;;13.90;99.80;;;;;;4892174;29;20270;-82
2023/05/28 01:38:06;;;;;;;6.63;4.80;;;14.00;99.90;;;;;;4875832;29;20206;-82
2023/05/28 01:40:34;;;;;;;5.78;4.88;;;13.60;99.70;;;;;;4887412;29;20222;-82
2023/05/28 01:43:03;;;;;;;11.50;5.40;;;13.80;99.90;;;;;;4887464;29;20239;-82
2023/05/28 01:45:29;;;;;;;5.95;5.22;;;13.50;99.90;;;;;;4886904;29;20278;-82
2023/05/28 01:47:55;;;;;;;7.47;5.22;;;13.80;99.90;;;;;;4891628;29;20195;-82
2023/05/28 01:50:21;;;;;;;5.73;4.73;;;13.70;99.90;;;;;;4892252;29;20563;-82
2023/05/28 01:52:47;;;;;;;8.40;4.97;;;13.50;99.90;;;;;;4891737;29;20210;-82
2023/05/28 01:55:13;;;;;;;7.60;5.70;;;13.30;99.90;;;;;;4888460;29;20187;-82
2023/05/28 01:57:39;;;;;;;7.60;4.97;;;13.80;99.90;;;;;;4890214;29;21024;-82
2023/05/28 02:00:06;;;;;;;7.80;5.03;;;13.20;99.90;;;;;;4892001;29;20540;-82
2023/05/28 02:02:32;;;;;;;5.75;4.93;;;13.20;99.90;;;;;;4892985;29;20684;-83
2023/05/28 02:04:58;;;;;;;6.07;4.77;;;13.60;99.90;;;;;;4893808;29;20218;-82
2023/05/28 02:07:23;;;;;;;6.90;4.60;;;13.30;99.90;;;;;;4888055;29;20448;-82
2023/05/28 02:09:49;;;;;;;6.33;5.40;;;13.10;99.90;;;;;;4895608;29;20481;-84
2023/05/28 02:12:15;;;;;;;8.03;5.07;;;13.00;99.90;;;;;;4895842;29;20692;-82
2023/05/28 02:14:41;;;;;;;6.22;5.10;;;13.20;99.90;;;;;;4895704;29;20661;-82
2023/05/28 02:17:09;;;;;;;5.95;4.40;;;13.10;99.90;;;;;;4891554;29;20205;-82
2023/05/28 02:19:34;;;;;;;6.95;5.07;;;12.80;99.90;;;;;;4895319;29;20235;-82
2023/05/28 02:22:00;;;;;;;6.03;4.83;;;13.10;99.90;;;;;;4891129;29;20689;-82
2023/05/28 02:24:25;;;;;;;5.67;5.17;;;12.90;99.90;;;;;;4893400;29;20194;-82
2023/05/28 02:26:51;;;;;;;6.80;5.03;;;12.90;99.90;;;;;;4891369;29;20203;-82
2023/05/28 02:29:16;;;;;;;5.43;4.90;;;13.00;99.90;;;;;;4895631;29;20191;-82
2023/05/28 02:31:42;;;;;;;5.80;4.50;;;13.30;99.90;;;;;;4892983;29;20634;-82
2023/05/28 02:34:07;;;;;;;7.53;5.30;;;13.20;99.90;;;;;;4891099;29;20203;-82
2023/05/28 02:36:33;;;;;;;5.77;4.50;;;12.90;99.90;;;;;;4894611;29;20238;-83
2023/05/28 02:38:58;;;;;;;7.60;4.87;;;12.80;99.90;;;;;;4891848;29;20728;-83
2023/05/28 02:41:25;;;;;;;7.60;5.33;;;13.10;99.90;;;;;;4895108;29;20676;-83
2023/05/28 02:43:51;;;;;;;5.93;5.05;;;12.70;99.90;;;;;;4914302;29;20195;-83
2023/05/28 02:46:17;;;;;;;5.73;4.90;;;12.60;99.90;;;;;;4892072;29;20187;-83
2023/05/28 02:48:43;;;;;;;7.80;5.10;;;12.50;99.90;;;;;;4890321;29;20191;-83
2023/05/28 02:51:08;;;;;;;7.60;5.00;;;12.60;99.90;;;;;;4892524;29;20270;-83
2023/05/28 02:53:34;;;;;;;6.43;4.30;;;12.60;99.90;;;;;;4895731;29;20294;-83
2023/05/28 02:56:00;;;;;;;6.20;5.23;;;12.90;99.90;;;;;;4892605;29;20203;-83
2023/05/28 02:58:25;;;;;;;10.90;5.43;;;12.70;99.90;;;;;;4894177;29;20696;-83
2023/05/28 03:00:51;;;;;;;5.80;5.10;;;13.00;99.90;;;;;;4897453;29;20471;-83
2023/05/28 03:03:16;;;;;;;7.27;4.90;;;12.50;99.90;;;;;;4898342;29;20211;-83
2023/05/28 03:05:42;;;;;;;6.23;4.60;;;12.50;99.90;;;;;;4898318;29;20275;-83
2023/05/28 03:08:08;;;;;;;8.23;5.70;;;12.30;99.90;;;;;;4897079;29;20210;-83
2023/05/28 03:10:33;;;;;;;7.10;4.80;;;12.00;99.90;;;;;;4891611;29;20190;-83
2023/05/28 03:12:59;;;;;;;6.33;4.73;;;12.90;99.90;;;;;;4891375;29;20474;-83
2023/05/28 03:15:26;;;;;;;5.10;4.40;;;12.30;99.90;;;;;;4886952;29;20810;-83
2023/05/28 03:17:52;;;;;;;5.60;4.40;;;12.80;99.90;;;;;;4893935;29;20194;-83
2023/05/28 03:20:18;;;;;;;7.97;4.82;;;12.80;99.90;;;;;;4902788;29;20214;-82
2023/05/28 03:22:47;;;;;;;6.73;5.10;;;12.10;99.90;;;;;;4895961;29;20203;-82
2023/05/28 03:25:13;;;;;;;6.85;5.10;;;12.40;99.90;;;;;;4892988;29;20231;-82
2023/05/28 03:27:39;;;;;;;6.60;4.97;;;12.30;99.90;;;;;;4903596;29;20192;-81
2023/05/28 03:30:07;;;;;;;7.80;5.40;;;12.40;99.90;;;;;;4914835;29;20462;-82
2023/05/28 03:32:32;;;;;;;5.75;4.43;;;12.50;99.90;;;;;;4898151;29;20214;-83
2023/05/28 03:34:58;;;;;;;5.90;4.23;;;12.40;99.90;;;;;;4894817;29;20198;-82
2023/05/28 03:37:26;;;;;;;8.53;5.10;;;12.20;99.90;;;;;;4898157;29;20195;-82
2023/05/28 03:39:52;;;;;;;7.72;5.10;;;12.30;99.90;;;;;;4892673;29;20206;-83
2023/05/28 03:42:18;;;;;;;7.00;4.72;;;12.00;99.90;;;;;;4910378;29;20703;-83
2023/05/28 03:44:43;;;;;;;7.50;4.97;;;12.50;99.90;;;;;;4889884;29;20182;-83
2023/05/28 03:47:09;;;;;;;6.47;5.10;;;12.10;99.90;;;;;;4898186;29;20686;-83
2023/05/28 03:49:34;;;;;;;6.93;4.73;;;12.10;99.90;;;;;;4890984;29;20191;-83
2023/05/28 03:52:00;;;;;;;7.00;4.93;;;12.40;99.90;;;;;;4892763;29;20224;-82
2023/05/28 03:54:25;;;;;;;7.80;4.60;;;12.10;99.90;;;;;;4888154;29;20199;-82
2023/05/28 03:56:51;;;;;;;5.07;4.57;;;12.20;99.90;;;;;;4889425;29;20203;-82
2023/05/28 03:59:16;;;;;;;8.60;5.97;;;12.30;99.90;;;;;;4908108;29;20213;-82
2023/05/28 04:01:42;;;;;;;6.63;5.17;;;12.30;99.90;;;;;;4888975;29;20207;-82
2023/05/28 04:04:07;;;;;;;7.87;4.83;;;12.60;99.90;;;;;;4890044;29;20990;-82
2023/05/28 04:06:33;;;;;;;8.33;5.13;;;12.50;99.90;;;;;;4892392;29;20210;-82
2023/05/28 04:08:58;;;;;;;6.70;5.00;;;12.20;99.90;;;;;;4892206;29;20682;-82
2023/05/28 04:11:24;;;;;;;7.27;5.17;;;12.20;99.90;;;;;;4891529;29;20184;-83
2023/05/28 04:13:53;;;;;;;6.70;5.00;;;12.10;99.90;;;;;;4895540;29;20199;-82
2023/05/28 04:16:22;;;;;;;7.22;4.95;;;12.30;99.90;;;;;;4892973;29;20501;-82
2023/05/28 04:18:49;;;;;;;8.48;5.32;;;12.50;99.90;;;;;;4895791;29;20722;-82
2023/05/28 04:21:15;;;;;;;5.97;4.80;;;12.10;99.90;;;;;;4891810;29;20851;-82
2023/05/28 04:23:40;;;;;;;6.78;4.95;;;12.50;99.90;;;;;;4888518;29;20191;-83
2023/05/28 04:26:06;;;;;;;6.13;4.60;;;12.60;99.90;;;;;;4888372;29;20239;-83
2023/05/28 04:28:33;;;;;;;8.73;5.90;;;12.30;99.90;;;;;;4893194;29;20183;-83
2023/05/28 04:31:01;;;;;;;7.88;4.60;;;12.50;99.90;;;;;;4890993;29;20433;-83
2023/05/28 04:33:30;;;;;;;14.05;5.38;;;12.50;99.90;;;;;;4889856;29;20273;-82
2023/05/28 04:35:57;;;;;;;6.88;5.43;;;12.50;99.90;;;;;;4891947;29;20218;-85
2023/05/28 04:38:22;;;;;;;5.22;4.63;;;12.20;99.90;;;;;;4894160;29;20187;-84
2023/05/28 04:40:49;;;;;;;10.77;5.87;;;12.50;99.90;;;;;;4893701;29;20223;-84
2023/05/28 04:43:18;;;;;;;6.70;5.20;;;12.30;99.90;;;;;;4896969;29;20202;-84
2023/05/28 04:45:43;;;;;;;5.65;4.78;;;12.50;99.90;;;;;;4890407;29;20178;-84
2023/05/28 04:48:10;;;;;;;5.73;4.90;;;12.40;99.90;;;;;;4898192;29;20251;-84
2023/05/28 04:50:36;;;;;;;5.85;5.18;;;12.90;99.90;;;;;;4895726;29;20187;-84
2023/05/28 04:53:01;;;;;;;5.37;4.63;;;12.50;99.90;;;;;;4894478;29;20213;-84
2023/05/28 04:55:27;;;;;;;7.50;5.03;;;12.40;99.90;;;;;;4892715;29;20285;-84
2023/05/28 04:57:53;;;;;;;5.50;4.73;;;12.80;99.90;;;;;;4891614;29;20191;-85
2023/05/28 05:00:19;;;;;;;5.60;4.80;;;13.00;99.90;;;;;;4893674;29;21003;-84
2023/05/28 05:02:44;;;;;;;5.70;4.50;;;12.90;99.90;;;;;;4895046;29;20905;-85
2023/05/28 05:05:10;;;;;;;8.70;5.13;;;13.30;99.90;;;;;;4886921;29;20211;-84
2023/05/28 05:07:37;;;;;;;5.60;5.10;;;13.10;99.90;;;;;;4894005;29;20191;-84
2023/05/28 05:10:09;;;;;;;6.13;5.00;;;13.70;99.90;;;;;;4894454;29;20250;-84
2023/05/28 05:12:35;;;;;;;6.97;4.80;;;13.10;99.90;;;;;;4888854;29;20700;-84
2023/05/28 05:15:01;;;;;;;8.85;5.97;;;13.50;99.90;;;;;;4891444;29;20213;-84
2023/05/28 05:17:26;;;;;;;8.73;5.40;;;13.70;99.90;;;;;;4892499;29;20761;-84
2023/05/28 05:19:52;;;;;;;8.53;5.17;;;13.90;99.90;;;;;;4892009;29;20219;-84
2023/05/28 05:22:18;;;;;;;7.63;5.37;;;13.90;99.90;;;;;;4891470;29;20310;-84
2023/05/28 05:24:46;;;;;;;8.73;5.30;;;13.80;99.90;;;;;;4891942;29;20231;-84
2023/05/28 05:27:11;;;;;;;7.70;5.07;;;13.50;99.90;;;;;;4896355;29;20264;-84
2023/05/28 05:29:37;;;;;;;5.23;4.73;;;14.30;99.90;;;;;;4901892;29;20187;-84
2023/05/28 05:32:03;;;;;;;5.50;4.97;;;14.10;99.90;;;;;;4899387;29;20218;-84
2023/05/28 05:34:28;;;;;;;7.50;4.63;;;14.40;99.90;;;;;;4902939;29;20195;-84
2023/05/28 05:36:54;;;;;;;8.00;5.40;;;14.30;99.10;;;;;;4905797;29;20190;-84
2023/05/28 05:39:20;;;;;;;6.20;5.60;;;14.70;98.60;;;;;;4917128;29;20278;-84
2023/05/28 05:41:45;;;;;;;5.87;4.83;;;14.70;98.20;;;;;;4906644;29;20217;-84
2023/05/28 05:44:11;;;;;;;5.70;5.10;;;15.00;97.90;;;;;;4903541;29;20219;-84
2023/05/28 05:46:36;;;;;;;6.67;5.00;;;15.10;97.60;;;;;;4901222;29;20209;-84
2023/05/28 05:49:02;;;;;;;6.30;5.30;;;15.50;97.70;;;;;;4902031;29;20683;-84
2023/05/28 05:51:27;;;;;;;7.17;5.80;;;15.30;97.10;;;;;;4902091;29;20203;-84
2023/05/28 05:53:53;;;;;;;8.03;6.80;;;15.60;97.50;;;;;;4903098;29;20192;-85
2023/05/28 05:56:18;;;;;;;6.43;5.40;;;15.60;97.40;;;;;;4902301;29;20194;-85
2023/05/28 05:58:44;;;;;;;8.40;5.63;;;15.90;96.60;;;;;;4898996;29;20294;-85
2023/05/28 06:01:10;;;;;;;6.33;5.73;;;16.20;96.20;;;;;;4917606;29;20223;-84
2023/05/28 06:03:35;;;;;;;10.97;5.80;;;15.90;95.20;;;;;;4901738;29;20656;-84
2023/05/28 06:06:01;;;;;;;9.77;6.90;;;15.90;94.60;;;;;;4903773;29;20450;-84
2023/05/28 06:08:27;;;;;;;9.27;7.10;;;16.20;95.00;;;;;;4904889;29;20329;-84
2023/05/28 06:10:52;;;;;;;7.80;5.60;;;16.70;95.10;;;;;;4901518;29;20303;-84
2023/05/28 06:13:18;;;;;;;8.07;6.87;;;16.50;95.00;;;;;;4902607;29;20243;-85
2023/05/28 06:15:44;;;;;;;8.73;6.17;;;16.60;94.80;;;;;;4905389;29;20188;-84
2023/05/28 06:18:11;;;;;;;8.15;5.88;;;16.80;95.30;;;;;;4906435;29;20186;-84
2023/05/28 06:20:37;;;;;;;7.78;6.88;;;16.90;94.60;;;;;;4906566;29;20301;-85
2023/05/28 06:23:02;;;;;;;7.40;6.30;;;16.90;93.50;;;;;;4905933;29;20227;-84
2023/05/28 06:25:28;;;;;;;8.80;6.63;;;16.80;93.30;;;;;;4889392;29;21327;-82
2023/05/28 06:27:53;;;;;;;8.87;6.00;;;17.10;93.70;;;;;;4898505;29;20285;-82
2023/05/28 06:30:19;;;;;;;12.33;6.83;;;17.30;93.80;;;;;;4921095;29;20199;-82
2023/05/28 06:32:44;;;;;;;6.67;6.00;;;17.30;93.40;;;;;;4918608;29;20244;-82
2023/05/28 06:35:10;;;;;;;9.13;6.20;;;17.20;92.80;;;;;;4908040;29;20198;-82
2023/05/28 06:37:36;;;;;;;9.30;6.17;;;17.30;92.80;;;;;;4902738;29;20210;-82
2023/05/28 06:40:05;;;;;;;6.63;5.63;;;18.10;92.90;;;;;;4893632;29;20464;-82
2023/05/28 06:42:31;;;;;;;7.60;6.13;;;17.50;91.90;;;;;;4894658;29;20199;-84
2023/05/28 06:44:58;;;;;;;7.00;6.30;;;17.50;91.70;;;;;;4894690;29;20183;-83
2023/05/28 06:47:23;;;;;;;8.75;6.35;;;17.50;91.30;;;;;;4898208;29;20282;-84
2023/05/28 06:49:49;;;;;;;7.50;6.23;;;18.20;91.30;;;;;;4895198;29;20623;-83
2023/05/28 06:52:15;;;;;;;8.87;6.03;;;18.20;90.70;;;;;;4892955;29;20637;-83
2023/05/28 06:54:40;;;;;;;7.07;6.00;;;18.20;90.40;;;;;;4892385;29;20661;-83
2023/05/28 06:57:06;;;;;;;8.47;5.80;;;18.50;90.00;;;;;;4889472;29;20492;-83
2023/05/28 06:59:32;;;;;;;8.07;5.93;;;18.70;89.20;;;;;;4888838;29;20211;-83
2023/05/28 07:01:57;;;;;;;6.80;5.73;;;18.50;88.40;;;;;;4896239;29;20487;-83
2023/05/28 07:04:23;;;;;;;7.53;5.80;;;19.00;87.40;;;;;;4914928;29;20620;-83
2023/05/28 07:06:48;;;;;;;7.90;6.20;;;19.80;86.20;;;;;;4899316;29;20194;-83
2023/05/28 07:09:14;;;;;;;6.93;6.23;;;21.50;84.00;;;;;;4900068;29;20303;-83
2023/05/28 07:11:39;;;;;;;7.60;5.60;;;22.80;74.40;;;;;;4895820;29;20263;-84
2023/05/28 07:14:05;;;;;;;8.53;6.30;;;26.10;67.40;;;;;;4896439;29;20277;-84
2023/05/28 07:16:30;;;;;;;9.83;5.50;;;25.10;62.80;;;;;;4888326;29;20334;-83
2023/05/28 07:18:56;;;;;;;6.37;5.13;;;26.70;58.00;;;;;;4908392;29;20254;-83
2023/05/28 07:21:21;;;;;;;5.77;5.07;;;28.20;55.90;;;;;;4894621;29;20214;-83
2023/05/28 07:23:47;;;;;;;6.57;5.93;;;30.20;51.40;;;;;;4905702;29;20429;-83
2023/05/28 07:26:12;;;;;;;6.23;5.20;;;31.60;47.20;;;;;;4895524;29;20198;-81
2023/05/28 07:28:38;;;;;;;6.13;5.53;;;32.50;44.90;;;;;;4894367;29;20185;-81
2023/05/28 07:31:04;;;;;;;6.50;5.47;;;32.70;41.80;;;;;;4894549;29;20255;-81
2023/05/28 07:33:30;;;;;;;10.63;6.43;;;34.10;40.10;;;;;;4894606;29;20293;-81
2023/05/28 07:35:56;;;;;;;5.90;5.30;;;35.30;37.80;;;;;;4899345;29;20471;-84
2023/05/28 07:38:21;;;;;;;6.60;6.00;;;34.10;37.30;;;;;;4897014;29;20668;-82
2023/05/28 07:40:47;;;;;;;5.73;5.13;;;33.60;38.40;;;;;;4895765;29;20297;-83
2023/05/28 07:43:12;;;;;;;7.47;5.53;;;34.00;36.30;;;;;;4897006;29;20217;-82
2023/05/28 07:45:38;;;;;;;7.40;5.23;;;32.90;37.30;;;;;;4896669;29;20198;-80
2023/05/28 07:48:03;;;;;;;6.90;4.93;;;32.70;37.30;;;;;;4894663;29;20284;-80
2023/05/28 07:50:29;;;;;;;8.23;6.00;;;31.80;37.90;;;;;;4892969;29;20199;-80
2023/05/28 07:52:55;;;;;;;5.10;4.60;;;30.80;40.10;;;;;;4891398;29;20333;-80
2023/05/28 07:55:21;;;;;;;5.23;4.80;;;32.70;38.50;;;;;;4894204;29;20187;-81
2023/05/28 07:57:46;;;;;;;5.63;5.10;;;33.20;37.00;;;;;;4890860;29;21034;-82
2023/05/28 08:00:15;;;;;;;5.27;4.73;;;34.40;36.20;;;;;;4890791;29;20655;-82
2023/05/28 08:02:44;;;;;;;6.23;5.40;;;33.50;36.40;;;;;;4910330;23;20237;-71
2023/05/28 08:05:10;;;;;;;8.13;5.23;;;34.30;36.20;;;;;;4915681;29;21029;-71
2023/05/28 08:07:35;;;;;;;6.23;5.23;;;33.10;35.70;;;;;;4917775;29;20588;-71
2023/05/28 08:10:03;;;;;;;5.67;4.93;;;34.40;35.20;;;;;;4923571;29;20213;-71
2023/05/28 08:12:28;;;;;;;6.63;4.77;;;33.90;35.10;;;;;;4919535;29;20959;-71
2023/05/28 09:18:40;;;;;;;5.63;4.77;;;36.40;31.10;;;;;;5634269;23;20662;-86
2023/05/28 09:21:11;;;;;;;4.57;4.17;;;36.30;31.50;;;;;;4932046;29;20477;-86
2023/05/28 09:23:39;;;;;;;7.63;5.40;;;37.00;31.00;;;;;;4914039;29;20339;-84
2023/05/28 09:26:09;;;;;;;7.20;5.20;;;37.80;30.40;;;;;;4912917;29;20442;-83
2023/05/28 09:28:35;;;;;;;6.70;5.10;;;37.00;30.90;;;;;;4917450;29;20442;-84
2023/05/28 09:31:05;;;;;;;7.37;5.43;;;37.30;30.40;;;;;;4922510;29;20447;-84
2023/05/28 09:33:32;;;;;;;7.40;5.90;;;37.50;30.20;;;;;;4937144;29;20213;-84
2023/05/28 09:36:01;;;;;;;6.40;4.67;;;37.90;30.00;;;;;;4920690;29;20446;-84
2023/05/28 09:38:38;;;;;;;7.13;5.00;;;37.00;30.80;;;;;;4931170;29;20449;-84
2023/05/28 09:41:03;;;;;;;6.53;5.57;;;37.10;30.20;;;;;;4914296;29;20477;-84
2023/05/28 09:43:29;;;;;;;6.20;5.10;;;36.80;30.30;;;;;;4916907;29;20466;-84
2023/05/28 09:46:09;;;;;;;5.70;5.20;;;37.60;30.30;;;;;;4913632;29;20265;-84
2023/05/28 09:48:35;;;;;;;6.87;4.70;;;36.70;29.70;;;;;;4916794;29;20209;-84
2023/05/28 09:51:04;;;;;;;6.47;5.10;;;37.40;29.90;;;;;;4926684;29;20454;-84
2023/05/28 09:53:33;;;;;;;7.60;4.40;;;36.20;29.60;;;;;;4945074;29;20476;-84
2023/05/28 09:56:00;;;;;;;5.33;4.73;;;35.70;31.10;;;;;;4924110;29;20545;-83
2023/05/28 09:58:34;;;;;;;6.07;4.80;;;36.60;30.30;;;;;;4930735;29;20454;-84
2023/05/28 10:01:03;;;;;;;8.07;4.70;;;37.20;29.60;;;;;;4931280;29;20485;-85
2023/05/28 10:03:46;;;;;;;6.17;4.37;;;36.60;29.50;;;;;;4917071;29;20481;-85
2023/05/28 10:06:16;;;;;;;5.57;4.77;;;35.80;30.30;;;;;;4921831;29;20446;-84
2023/05/28 10:08:45;;;;;;;5.80;4.37;;;34.10;32.00;;;;;;4917386;29;20442;-85
2023/05/28 10:11:15;;;;;;;5.40;4.50;;;35.60;31.60;;;;;;4912504;29;20466;-85
2023/05/28 10:13:41;;;;;;;6.30;4.27;;;35.40;30.40;;;;;;4912450;29;20487;-85
2023/05/28 10:16:07;;;;;;;6.07;4.40;;;36.20;30.20;;;;;;4913170;29;20450;-84
2023/05/28 10:18:33;;;;;;;5.40;4.90;;;34.40;30.10;;;;;;4916007;29;20636;-85
2023/05/28 10:20:59;;;;;;;4.80;4.10;;;33.90;31.60;;;;;;4917051;29;20477;-85
2023/05/28 10:23:25;;;;;;;5.13;4.17;;;33.30;32.00;;;;;;4916593;29;20486;-85
2023/05/28 10:25:51;;;;;;;6.40;4.60;;;32.60;32.70;;;;;;4916500;29;20190;-85
2023/05/28 10:28:19;;;;;;;7.10;5.27;;;31.20;34.00;;;;;;4922554;29;20480;-85
2023/05/28 10:30:45;;;;;;;6.10;4.90;;;30.40;35.60;;;;;;4932748;29;20462;-85
2023/05/28 10:33:20;;;;;;;5.30;4.70;;;29.70;37.40;;;;;;4934364;29;20551;-85
2023/05/28 10:35:57;;;;;;;5.30;4.27;;;29.30;37.70;;;;;;4932712;29;20194;-85
2023/05/28 10:38:23;;;;;;;5.43;4.33;;;29.10;37.70;;;;;;4925987;29;20559;-85
2023/05/28 10:40:48;;;;;;;4.30;3.90;;;29.10;37.50;;;;;;4913703;29;20558;-85
2023/05/28 10:43:45;;;;;;;5.47;4.07;;;29.10;37.90;;;;;;4917429;29;20462;-86
2023/05/28 10:46:23;;;;;;;5.57;4.50;;;29.40;37.20;;;;;;4928685;29;20199;-85
2023/05/28 10:49:12;;;;;;;4.43;3.60;;;30.10;36.50;;;;;;4919064;29;20444;-86
2023/05/28 10:51:45;;;;;;;5.87;4.60;;;30.60;35.50;;;;;;4912783;29;20475;-86
2023/05/28 10:54:23;;;;;;;9.13;5.23;;;31.40;34.80;;;;;;4908882;29;20460;-86
2023/05/28 10:57:12;;;;;;;5.13;4.30;;;31.10;34.30;;;;;;4911328;29;20458;-85
2023/05/28 10:59:38;;;;;;;6.20;5.57;;;31.40;35.30;;;;;;4912482;29;20480;-86
2023/05/28 11:02:06;;;;;;;8.33;5.00;;;31.70;34.90;;;;;;4910280;29;20477;-85
2023/05/28 11:04:35;;;;;;;6.10;4.40;;;31.00;33.90;;;;;;4914511;29;21084;-86
2023/05/28 11:07:02;;;;;;;6.17;4.57;;;32.60;34.10;;;;;;4912856;29;20462;-86
2023/05/28 11:09:27;;;;;;;5.80;4.30;;;33.30;33.50;;;;;;4910919;29;20841;-86
2023/05/28 11:11:58;;;;;;;6.03;4.70;;;33.10;32.30;;;;;;4911698;29;20472;-86
2023/05/28 11:14:24;;;;;;;6.27;4.63;;;33.60;32.60;;;;;;4912780;29;20194;-85
2023/05/28 11:16:49;;;;;;;5.43;4.10;;;34.00;32.70;;;;;;4914062;29;20449;-85
2023/05/28 11:19:15;;;;;;;6.17;4.20;;;34.40;32.00;;;;;;4913205;29;20445;-86
2023/05/28 11:21:53;;;;;;;5.20;4.40;;;34.30;31.00;;;;;;4914709;29;20213;-86
2023/05/28 11:24:19;;;;;;;5.40;4.50;;;34.50;30.60;;;;;;4923088;29;20218;-86
2023/05/28 11:26:45;;;;;;;6.47;4.60;;;33.90;30.50;;;;;;4942941;29;20699;-86
2023/05/28 11:29:13;;;;;;;7.47;4.70;;;33.60;31.10;;;;;;4932304;29;20450;-86
2023/05/28 11:31:42;;;;;;;5.43;4.77;;;33.90;31.70;;;;;;4916005;29;20210;-86
2023/05/28 11:34:08;;;;;;;5.37;4.63;;;33.70;32.60;;;;;;4923568;29;20449;-86
2023/05/28 11:36:39;;;;;;;5.53;4.20;;;34.00;32.80;;;;;;4916664;29;20446;-86
2023/05/28 11:39:04;;;;;;;5.50;4.70;;;34.30;33.20;;;;;;4912414;29;20479;-86
2023/05/28 11:41:30;;;;;;;6.47;4.80;;;33.10;34.10;;;;;;4913478;29;20510;-86
2023/05/28 11:43:56;;;;;;;6.10;4.63;;;32.40;35.00;;;;;;4919820;29;20178;-85
2023/05/28 11:46:22;;;;;;;5.47;4.50;;;32.50;36.20;;;;;;4912807;29;20454;-85
2023/05/28 11:48:47;;;;;;;6.53;5.03;;;30.80;36.20;;;;;;4912906;29;20610;-84
2023/05/28 11:51:13;;;;;;;6.77;4.77;;;29.70;36.60;;;;;;4912869;29;20198;-85
2023/05/28 11:53:40;;;;;;;7.77;5.13;;;29.60;37.10;;;;;;4916897;29;20202;-85
2023/05/28 11:56:13;;;;;;;5.53;4.23;;;29.20;38.00;;;;;;5040520;27;20542;-69
2023/05/28 11:58:45;;;;;;;5.33;4.60;;;28.90;38.70;;;;;;5038581;28;20527;-69
2023/05/28 12:01:17;;;;;;;7.30;5.00;;;28.50;39.10;;;;;;5022103;28;20439;-69
2023/05/28 12:03:43;;;;;;;5.90;5.10;;;28.10;40.20;;;;;;5019940;28;20438;-69
2023/05/28 12:06:08;;;;;;;8.00;4.80;;;27.60;41.10;;;;;;5021439;28;20956;-69
2023/05/28 12:08:37;;;;;;;8.70;4.33;;;27.60;40.90;;;;;;5020425;28;20459;-69
2023/05/28 12:11:02;;;;;;;5.43;4.00;;;27.50;39.30;;;;;;5017743;28;20220;-69
2023/05/28 12:13:35;;;;;;;6.20;4.27;;;26.80;38.70;;;;;;5022468;28;20454;-69
2023/05/28 12:16:09;;;;;;;5.83;4.40;;;27.00;38.30;;;;;;5017724;28;20314;-70
2023/05/28 12:18:40;;;;;;;6.50;4.20;;;27.00;38.70;;;;;;5053283;28;20446;-69
2023/05/28 12:21:10;;;;;;;6.13;4.50;;;27.00;38.70;;;;;;5015205;28;20446;-69
2023/05/28 12:23:36;;;;;;;4.80;4.10;;;26.70;38.70;;;;;;5022676;28;20516;-69
2023/05/28 12:26:02;;;;;;;4.33;3.93;;;26.80;38.90;;;;;;5021414;28;20570;-69
2023/05/28 12:28:28;;;;;;;5.67;4.13;;;27.00;39.80;;;;;;5016422;28;20213;-69
2023/05/28 12:30:55;;;;;;;5.17;4.10;;;27.00;38.40;;;;;;5017380;28;21021;-70
2023/05/28 12:33:22;;;;;;;5.90;4.43;;;26.80;38.90;;;;;;5018747;28;20222;-70
2023/05/28 12:35:47;;;;;;;4.93;4.13;;;26.70;38.70;;;;;;5013454;28;20475;-65
2023/05/28 12:38:14;;;;;;;4.70;4.23;;;26.60;39.50;;;;;;5003183;28;20450;-66
2023/05/28 12:40:39;;;;;;;7.43;4.50;;;26.30;39.80;;;;;;5015859;28;20210;-67
2023/05/28 12:43:06;;;;;;;4.77;4.33;;;26.30;41.40;;;;;;5013452;28;20434;-62
2023/05/28 12:45:32;;;;;;;6.00;4.90;;;26.30;42.10;;;;;;5019462;28;20202;-66
2023/05/28 12:47:57;;;;;;;4.63;3.93;;;26.50;43.20;;;;;;5017783;28;20458;-71
2023/05/28 12:50:23;;;;;;;9.07;4.77;;;26.40;42.30;;;;;;5019360;28;20249;-73
2023/05/28 12:52:49;;;;;;;6.80;5.40;;;26.30;42.50;;;;;;5014285;28;20190;-66
2023/05/28 12:55:15;;;;;;;6.90;4.70;;;26.30;42.90;;;;;;5014262;28;20472;-65
2023/05/28 12:57:41;;;;;;;6.63;5.07;;;26.30;43.10;;;;;;5015716;28;20441;-65
2023/05/28 13:00:10;;;;;;;6.23;5.23;;;26.40;41.80;;;;;;5012165;28;20206;-69
2023/05/28 13:02:36;;;;;;;5.53;4.33;;;26.50;42.00;;;;;;5027301;28;20175;-68
2023/05/28 13:05:02;;;;;;;5.53;4.47;;;26.50;41.90;;;;;;5013552;28;20972;-68
2023/05/28 13:07:27;;;;;;;6.43;4.70;;;26.50;41.90;;;;;;5000090;28;20439;-69
2023/05/28 13:09:53;;;;;;;4.53;4.10;;;26.50;41.20;;;;;;5012755;28;20212;-68
2023/05/28 13:12:18;;;;;;;5.83;4.40;;;26.50;41.00;;;;;;5011410;28;20674;-67
2023/05/28 13:14:44;;;;;;;7.50;4.93;;;26.60;40.50;;;;;;5010734;28;20269;-67
2023/05/28 13:17:09;;;;;;;5.70;4.60;;;26.40;40.40;;;;;;5005606;28;20188;-68
2023/05/28 13:19:35;;;;;;;6.30;5.33;;;26.40;40.90;;;;;;5015643;28;20206;-72
2023/05/28 13:22:01;;;;;;;5.77;4.40;;;26.60;40.90;;;;;;5008050;28;20198;-67
2023/05/28 13:24:26;;;;;;;5.30;4.37;;;26.60;40.50;;;;;;4999208;28;20266;-68
2023/05/28 13:26:52;;;;;;;5.97;4.30;;;26.40;41.10;;;;;;5002107;28;20241;-68
2023/05/28 13:29:18;;;;;;;6.33;5.43;;;26.50;41.30;;;;;;5004444;28;20207;-68
2023/05/28 13:31:43;;;;;;;5.63;4.57;;;26.40;41.70;;;;;;5005849;28;20196;-67
2023/05/28 13:34:09;;;;;;;6.27;5.17;;;26.40;41.60;;;;;;5007459;28;20469;-68
2023/05/28 13:36:35;;;;;;;5.53;4.50;;;26.30;41.30;;;;;;5002726;28;20214;-67
2023/05/28 13:39:02;;;;;;;7.33;4.67;;;25.90;41.20;;;;;;4996821;28;20209;-67
2023/05/28 13:41:27;;;;;;;5.27;4.73;;;26.20;41.30;;;;;;5002467;28;20438;-67
2023/05/28 13:43:54;;;;;;;7.80;4.80;;;26.10;41.30;;;;;;5004608;28;20969;-67
2023/05/28 13:46:20;;;;;;;6.37;5.23;;;26.10;41.50;;;;;;5003031;28;20195;-67